createdAt,value
2017-05-24T00:00:04.626Z,997.68
2017-05-24T00:01:14.963Z,997.7
2017-05-24T00:02:25.375Z,997.72
2017-05-24T00:03:35.417Z,997.67
2017-05-24T00:04:45.448Z,997.69
2017-05-24T00:05:55.169Z,997.66
2017-05-24T00:07:05.199Z,997.68
2017-05-24T00:08:15.575Z,997.66
2017-05-24T00:09:25.944Z,997.64
2017-05-24T00:10:36.294Z,997.6
2017-05-24T00:11:46.646Z,997.57
2017-05-24T00:12:56.996Z,997.53
2017-05-24T00:14:07.033Z,997.49
2017-05-24T00:15:17.383Z,997.49
2017-05-24T00:16:27.737Z,997.48
2017-05-24T00:17:38.073Z,997.45
2017-05-24T00:18:48.424Z,997.44
2017-05-24T00:19:58.770Z,997.48
2017-05-24T00:21:09.135Z,997.52
2017-05-24T00:22:18.871Z,997.55
2017-05-24T00:23:29.272Z,997.53
2017-05-24T00:24:39.632Z,997.51
2017-05-24T00:25:49.661Z,997.58
2017-05-24T00:26:59.999Z,997.6
2017-05-24T00:28:10.349Z,997.61
2017-05-24T00:29:20.752Z,997.64
2017-05-24T00:30:31.114Z,997.66
2017-05-24T00:31:41.140Z,997.61
2017-05-24T00:32:50.870Z,997.54
2017-05-24T00:34:01.247Z,997.57
2017-05-24T00:35:11.631Z,997.59
2017-05-24T00:36:21.981Z,997.54
2017-05-24T00:37:32.330Z,997.55
2017-05-24T00:38:42.689Z,997.52
2017-05-24T00:39:53.041Z,997.53
2017-05-24T00:41:03.131Z,997.52
2017-05-24T00:42:13.498Z,997.51
2017-05-24T00:43:23.841Z,997.51
2017-05-24T00:44:34.186Z,997.51
2017-05-24T00:45:44.544Z,997.47
2017-05-24T00:46:54.901Z,997.52
2017-05-24T00:48:05.269Z,997.49
2017-05-24T00:49:15.855Z,997.51
2017-05-24T00:50:26.200Z,997.53
2017-05-24T00:51:36.540Z,997.58
2017-05-24T00:52:46.878Z,997.54
2017-05-24T00:53:57.233Z,997.56
2017-05-24T00:55:07.280Z,997.5
2017-05-24T00:56:17.630Z,997.53
2017-05-24T00:57:27.678Z,997.55
2017-05-24T00:58:37.451Z,997.49
2017-05-24T00:59:47.813Z,997.5
2017-05-24T01:00:58.184Z,997.49
2017-05-24T01:02:08.554Z,997.47
2017-05-24T01:03:18.589Z,997.45
2017-05-24T01:04:28.999Z,997.43
2017-05-24T01:05:38.736Z,997.37
2017-05-24T01:06:49.074Z,997.38
2017-05-24T01:07:59.426Z,997.36
2017-05-24T01:09:09.475Z,997.31
2017-05-24T01:10:19.874Z,997.35
2017-05-24T01:11:30.218Z,997.27
2017-05-24T01:12:40.552Z,997.31
2017-05-24T01:13:50.912Z,997.27
2017-05-24T01:15:00.633Z,997.3
2017-05-24T01:16:11.022Z,997.3
2017-05-24T01:17:21.383Z,997.36
2017-05-24T01:18:31.421Z,997.34
2017-05-24T01:19:41.778Z,997.35
2017-05-24T01:20:52.134Z,997.35
2017-05-24T01:22:02.479Z,997.28
2017-05-24T01:23:12.826Z,997.24
2017-05-24T01:24:22.869Z,997.29
2017-05-24T01:25:33.216Z,997.23
2017-05-24T01:26:43.262Z,997.24
2017-05-24T01:27:53.299Z,997.24
2017-05-24T01:29:03.339Z,997.21
2017-05-24T01:30:13.372Z,997.23
2017-05-24T01:31:23.405Z,997.17
2017-05-24T01:32:33.752Z,997.16
2017-05-24T01:33:44.164Z,997.15
2017-05-24T01:34:54.515Z,997.13
2017-05-24T01:36:04.867Z,997.13
2017-05-24T01:37:15.276Z,997.11
2017-05-24T01:38:25.624Z,997.16
2017-05-24T01:39:35.657Z,997.16
2017-05-24T01:40:45.700Z,997.12
2017-05-24T01:41:56.070Z,997.12
2017-05-24T01:43:06.422Z,997.1
2017-05-24T01:44:16.778Z,997.11
2017-05-24T01:45:26.830Z,997.14
2017-05-24T01:46:37.178Z,997.09
2017-05-24T01:47:47.526Z,997.08
2017-05-24T01:48:57.246Z,997.1
2017-05-24T01:50:07.296Z,997.12
2017-05-24T01:51:17.345Z,997.12
2017-05-24T01:52:27.702Z,997.11
2017-05-24T01:53:38.044Z,997.12
2017-05-24T01:54:48.394Z,997.13
2017-05-24T01:55:58.733Z,997.15
2017-05-24T01:57:09.092Z,997.15
2017-05-24T01:58:19.427Z,997.16
2017-05-24T01:59:29.772Z,997.14
2017-05-24T02:00:39.827Z,997.22
2017-05-24T02:01:50.422Z,997.28
2017-05-24T02:03:00.778Z,997.29
2017-05-24T02:04:11.125Z,997.25
2017-05-24T02:05:21.472Z,997.27
2017-05-24T02:06:31.821Z,997.3
2017-05-24T02:07:41.855Z,997.3
2017-05-24T02:08:52.256Z,997.28
2017-05-24T02:10:02.318Z,997.33
2017-05-24T02:11:12.687Z,997.31
2017-05-24T02:12:23.033Z,997.32
2017-05-24T02:13:33.385Z,997.37
2017-05-24T02:14:43.795Z,997.4
2017-05-24T02:15:53.842Z,997.46
2017-05-24T02:17:04.201Z,997.53
2017-05-24T02:18:14.249Z,997.5
2017-05-24T02:19:24.011Z,997.58
2017-05-24T02:20:34.524Z,997.59
2017-05-24T02:21:44.877Z,997.61
2017-05-24T02:22:55.233Z,997.64
2017-05-24T02:24:05.635Z,997.72
2017-05-24T02:25:15.974Z,997.79
2017-05-24T02:26:26.371Z,997.85
2017-05-24T02:27:36.417Z,997.87
2017-05-24T02:28:46.471Z,997.94
2017-05-24T02:29:56.514Z,998.13
2017-05-24T02:31:06.871Z,998.15
2017-05-24T02:32:17.230Z,998.26
2017-05-24T02:33:27.574Z,998.2
2017-05-24T02:34:37.923Z,998.27
2017-05-24T02:35:47.950Z,998.32
2017-05-24T02:36:58.296Z,998.3
2017-05-24T02:38:08.702Z,998.27
2017-05-24T02:39:18.766Z,998.27
2017-05-24T02:40:28.804Z,998.22
2017-05-24T02:41:38.847Z,998.28
2017-05-24T02:42:49.244Z,998.23
2017-05-24T02:43:59.276Z,998.2
2017-05-24T02:45:09.644Z,998.16
2017-05-24T02:46:19.995Z,998.09
2017-05-24T02:47:30.343Z,997.95
2017-05-24T02:48:40.686Z,997.88
2017-05-24T02:49:50.759Z,997.94
2017-05-24T02:51:00.179Z,997.92
2017-05-24T02:52:10.537Z,997.85
2017-05-24T02:53:20.883Z,997.73
2017-05-24T02:54:31.232Z,997.72
2017-05-24T02:55:41.598Z,997.7
2017-05-24T02:56:51.943Z,997.71
2017-05-24T02:58:01.971Z,997.7
2017-05-24T02:59:12.327Z,997.74
2017-05-24T03:00:22.687Z,997.7
2017-05-24T03:01:33.036Z,997.68
2017-05-24T03:33:01.838Z,997.73
2017-05-24T03:34:12.170Z,997.75
2017-05-24T03:35:22.509Z,997.8
2017-05-24T03:36:32.517Z,997.77
2017-05-24T03:37:42.568Z,997.74
2017-05-24T03:38:52.903Z,997.77
2017-05-24T03:40:03.248Z,997.72
2017-05-24T03:41:13.278Z,997.73
2017-05-24T03:42:23.623Z,997.7
2017-05-24T03:43:33.963Z,997.7
2017-05-24T03:44:44.355Z,997.69
2017-05-24T03:45:54.769Z,997.67
2017-05-24T03:47:05.120Z,997.64
2017-05-24T03:48:15.475Z,997.7
2017-05-24T03:49:25.817Z,997.73
2017-05-24T03:50:36.167Z,997.75
2017-05-24T03:51:46.507Z,997.72
2017-05-24T03:52:56.864Z,997.68
2017-05-24T03:54:07.272Z,997.67
2017-05-24T03:55:17.628Z,997.66
2017-05-24T03:56:27.964Z,997.72
2017-05-24T03:57:38.287Z,997.72
2017-05-24T03:58:48.632Z,997.69
2017-05-24T03:59:58.982Z,997.69
2017-05-24T04:01:09.024Z,997.66
2017-05-24T04:02:19.374Z,997.67
2017-05-24T04:03:29.733Z,997.64
2017-05-24T04:04:39.791Z,997.66
2017-05-24T04:05:50.132Z,997.66
2017-05-24T04:07:00.476Z,997.63
2017-05-24T04:08:10.842Z,997.66
2017-05-24T04:09:21.201Z,997.65
2017-05-24T04:10:31.542Z,997.61
2017-05-24T04:11:41.579Z,997.61
2017-05-24T04:12:51.937Z,997.59
2017-05-24T04:14:02.546Z,997.61
2017-05-24T04:15:12.582Z,997.63
2017-05-24T04:16:22.923Z,997.58
2017-05-24T04:17:33.272Z,997.6
2017-05-24T04:18:43.302Z,997.56
2017-05-24T04:19:53.406Z,997.55
2017-05-24T04:21:03.741Z,997.64
2017-05-24T04:22:14.079Z,997.61
2017-05-24T04:23:24.433Z,997.63
2017-05-24T04:24:34.473Z,997.64
2017-05-24T04:25:44.878Z,997.64
2017-05-24T04:26:55.233Z,997.67
2017-05-24T04:28:05.268Z,997.64
2017-05-24T04:29:15.302Z,997.65
2017-05-24T04:30:25.404Z,997.66
2017-05-24T04:31:35.492Z,997.74
2017-05-24T04:32:45.529Z,997.7
2017-05-24T04:33:55.263Z,997.63
2017-05-24T04:35:05.614Z,997.6
2017-05-24T04:36:15.953Z,997.61
2017-05-24T04:37:26.366Z,997.61
2017-05-24T04:38:36.392Z,997.63
2017-05-24T04:39:46.758Z,997.66
2017-05-24T04:40:56.804Z,997.68
2017-05-24T04:42:07.157Z,997.73
2017-05-24T04:43:17.582Z,997.75
2017-05-24T04:44:27.936Z,997.8
2017-05-24T04:45:37.672Z,997.87
2017-05-24T04:46:48.086Z,997.89
2017-05-24T04:47:58.452Z,997.9
2017-05-24T04:49:08.475Z,997.83
2017-05-24T04:50:18.516Z,997.8
2017-05-24T04:51:28.872Z,997.75
2017-05-24T04:52:38.907Z,997.73
2017-05-24T04:53:49.245Z,997.76
2017-05-24T04:54:59.586Z,997.74
2017-05-24T04:56:09.603Z,997.75
2017-05-24T04:57:19.646Z,997.77
2017-05-24T04:58:30.039Z,997.8
2017-05-24T04:59:40.393Z,997.74
2017-05-24T05:00:50.427Z,997.78
2017-05-24T05:02:00.769Z,997.82
2017-05-24T05:03:11.138Z,997.82
2017-05-24T05:04:21.498Z,997.81
2017-05-24T05:05:31.878Z,997.86
2017-05-24T05:06:42.222Z,997.84
2017-05-24T05:07:52.260Z,997.88
2017-05-24T05:09:02.626Z,997.87
2017-05-24T05:10:13.026Z,997.89
2017-05-24T05:11:23.371Z,997.86
2017-05-24T05:12:33.399Z,997.9
2017-05-24T05:13:43.798Z,997.88
2017-05-24T05:14:53.528Z,997.89
2017-05-24T05:16:03.308Z,997.9
2017-05-24T05:17:13.671Z,997.86
2017-05-24T05:18:24.024Z,997.91
2017-05-24T05:19:34.046Z,997.86
2017-05-24T05:20:44.394Z,997.85
2017-05-24T05:21:54.498Z,997.9
2017-05-24T05:23:04.530Z,997.9
2017-05-24T05:24:14.893Z,997.95
2017-05-24T05:25:25.233Z,997.96
2017-05-24T05:26:35.644Z,998
2017-05-24T05:27:45.990Z,998.01
2017-05-24T05:28:56.338Z,998.06
2017-05-24T05:30:06.370Z,998.09
2017-05-24T05:31:16.720Z,998.13
2017-05-24T05:32:27.099Z,998.18
2017-05-24T05:33:37.475Z,998.18
2017-05-24T05:34:47.508Z,998.22
2017-05-24T05:35:57.858Z,998.25
2017-05-24T05:37:08.229Z,998.25
2017-05-24T05:38:18.269Z,998.22
2017-05-24T05:39:28.676Z,998.23
2017-05-24T05:40:38.713Z,998.18
2017-05-24T05:41:49.069Z,998.19
2017-05-24T05:42:59.114Z,998.18
2017-05-24T05:44:09.190Z,998.22
2017-05-24T05:45:19.555Z,998.23
2017-05-24T05:46:29.585Z,998.29
2017-05-24T05:47:39.931Z,998.28
2017-05-24T05:48:50.328Z,998.3
2017-05-24T05:50:00.371Z,998.35
2017-05-24T05:51:10.711Z,998.4
2017-05-24T05:52:21.068Z,998.41
2017-05-24T05:53:31.121Z,998.47
2017-05-24T05:54:41.487Z,998.51
2017-05-24T05:55:51.530Z,998.51
2017-05-24T05:57:01.890Z,998.52
2017-05-24T05:58:12.234Z,998.56
2017-05-24T05:59:22.600Z,998.58
2017-05-24T06:00:32.946Z,998.55
2017-05-24T06:01:42.988Z,998.57
2017-05-24T06:02:53.389Z,998.58
2017-05-24T06:04:03.739Z,998.62
2017-05-24T06:05:13.779Z,998.66
2017-05-24T06:06:24.151Z,998.65
2017-05-24T06:07:34.502Z,998.71
2017-05-24T06:08:44.864Z,998.65
2017-05-24T06:09:55.695Z,998.7
2017-05-24T06:11:12.613Z,998.82
2017-05-24T06:12:28.416Z,998.78
2017-05-24T06:13:45.519Z,998.76
2017-05-24T06:14:55.902Z,998.79
2017-05-24T06:16:06.305Z,998.78
2017-05-24T06:17:16.893Z,998.79
2017-05-24T06:18:26.930Z,998.77
2017-05-24T06:19:37.340Z,998.84
2017-05-24T06:20:47.390Z,998.87
2017-05-24T06:21:57.740Z,998.87
2017-05-24T06:23:08.181Z,998.8
2017-05-24T06:24:18.249Z,998.89
2017-05-24T06:25:28.690Z,998.97
2017-05-24T06:26:39.094Z,999.09
2017-05-24T06:27:49.499Z,999.19
2017-05-24T06:29:00.121Z,999.2
2017-05-24T06:30:10.502Z,999.11
2017-05-24T06:31:20.616Z,999.19
2017-05-24T06:32:30.986Z,999.1
2017-05-24T06:33:41.070Z,999.3
2017-05-24T06:34:51.718Z,999.24
2017-05-24T06:36:02.328Z,999.22
2017-05-24T06:37:12.062Z,999.1
2017-05-24T06:38:21.829Z,999.19
2017-05-24T06:39:32.250Z,999.12
2017-05-24T06:40:42.637Z,999.13
2017-05-24T06:41:52.698Z,999.18
2017-05-24T06:43:03.083Z,999.23
2017-05-24T06:44:13.459Z,999.17
2017-05-24T06:45:23.839Z,999.18
2017-05-24T06:46:34.202Z,999.19
2017-05-24T06:47:44.272Z,999.17
2017-05-24T06:48:54.729Z,999.2
2017-05-24T06:50:05.077Z,999.18
2017-05-24T06:51:15.471Z,999.18
2017-05-24T06:52:25.867Z,999.21
2017-05-24T06:53:36.239Z,999.23
2017-05-24T06:54:46.721Z,999.22
2017-05-24T06:55:56.775Z,999.19
2017-05-24T06:57:06.834Z,999.2
2017-05-24T06:58:17.235Z,999.2
2017-05-24T06:59:27.634Z,999.21
2017-05-24T07:00:38.022Z,999.3
2017-05-24T07:01:48.369Z,999.29
2017-05-24T07:02:58.864Z,999.35
2017-05-24T07:04:08.927Z,999.35
2017-05-24T07:05:19.309Z,999.36
2017-05-24T07:06:29.694Z,999.4
2017-05-24T07:07:40.090Z,999.5
2017-05-24T07:08:50.459Z,999.42
2017-05-24T07:10:00.846Z,999.39
2017-05-24T07:11:11.453Z,999.49
2017-05-24T07:12:21.811Z,999.42
2017-05-24T07:13:32.184Z,999.44
2017-05-24T07:14:42.673Z,999.43
2017-05-24T07:15:53.037Z,999.33
2017-05-24T07:17:03.412Z,999.37
2017-05-24T07:18:13.838Z,999.34
2017-05-24T07:19:24.194Z,999.27
2017-05-24T07:20:34.574Z,999.38
2017-05-24T07:21:44.942Z,999.27
2017-05-24T07:22:54.979Z,999.37
2017-05-24T07:24:05.081Z,999.43
2017-05-24T07:25:15.135Z,999.49
2017-05-24T07:26:25.489Z,999.57
2017-05-24T07:27:35.531Z,999.4
2017-05-24T07:28:45.893Z,999.55
2017-05-24T07:29:56.307Z,999.44
2017-05-24T07:31:06.672Z,999.41
2017-05-24T07:32:17.047Z,999.41
2017-05-24T07:33:27.099Z,999.5
2017-05-24T07:34:37.472Z,999.56
2017-05-24T07:35:47.909Z,999.62
2017-05-24T07:36:57.962Z,999.55
2017-05-24T07:38:08.339Z,999.49
2017-05-24T07:39:18.716Z,999.5
2017-05-24T07:40:29.082Z,999.43
2017-05-24T07:41:38.829Z,999.39
2017-05-24T07:42:49.187Z,999.52
2017-05-24T07:43:59.538Z,999.43
2017-05-24T07:45:09.899Z,999.35
2017-05-24T07:46:20.264Z,999.42
2017-05-24T07:47:30.719Z,999.48
2017-05-24T07:48:41.090Z,999.52
2017-05-24T07:49:51.479Z,999.51
2017-05-24T07:51:01.847Z,999.48
2017-05-24T07:52:12.208Z,999.53
2017-05-24T07:53:22.618Z,999.48
2017-05-24T07:54:32.984Z,999.49
2017-05-24T07:55:43.032Z,999.49
2017-05-24T07:56:53.405Z,999.44
2017-05-24T07:58:03.779Z,999.51
2017-05-24T07:59:13.981Z,999.43
2017-05-24T08:00:24.408Z,999.46
2017-05-24T08:01:34.764Z,999.53
2017-05-24T08:02:45.148Z,999.56
2017-05-24T08:03:55.526Z,999.6
2017-05-24T08:05:05.628Z,999.48
2017-05-24T08:06:15.680Z,999.46
2017-05-24T08:07:26.024Z,999.38
2017-05-24T08:08:36.398Z,999.42
2017-05-24T08:09:46.770Z,999.34
2017-05-24T08:10:57.216Z,999.34
2017-05-24T08:12:07.563Z,999.39
2017-05-24T08:13:17.930Z,999.32
2017-05-24T08:14:27.966Z,999.34
2017-05-24T08:15:38.399Z,999.31
2017-05-24T08:16:48.784Z,999.36
2017-05-24T08:17:58.830Z,999.41
2017-05-24T08:19:08.892Z,999.41
2017-05-24T08:20:19.260Z,999.44
2017-05-24T08:21:29.841Z,999.56
2017-05-24T08:22:39.947Z,999.49
2017-05-24T08:23:50.308Z,999.47
2017-05-24T08:25:00.691Z,999.48
2017-05-24T08:26:11.063Z,999.43
2017-05-24T08:27:21.116Z,999.48
2017-05-24T08:28:31.480Z,999.51
2017-05-24T08:29:41.526Z,999.54
2017-05-24T08:30:51.907Z,999.54
2017-05-24T08:32:02.277Z,999.57
2017-05-24T08:33:12.325Z,999.49
2017-05-24T08:34:22.758Z,999.44
2017-05-24T08:35:33.117Z,999.55
2017-05-24T08:36:43.456Z,999.59
2017-05-24T08:37:53.837Z,999.6
2017-05-24T08:39:04.221Z,999.62
2017-05-24T08:40:14.636Z,999.64
2017-05-24T08:41:25.019Z,999.65
2017-05-24T08:42:35.374Z,999.56
2017-05-24T08:43:45.743Z,999.62
2017-05-24T08:44:56.107Z,999.57
2017-05-24T08:46:06.497Z,999.59
2017-05-24T08:47:16.871Z,999.48
2017-05-24T08:48:27.240Z,999.47
2017-05-24T08:49:37.618Z,999.48
2017-05-24T08:50:47.681Z,999.42
2017-05-24T08:51:57.712Z,999.36
2017-05-24T08:53:08.071Z,999.31
2017-05-24T08:54:18.135Z,999.32
2017-05-24T08:55:28.507Z,999.3
2017-05-24T08:56:38.265Z,999.33
2017-05-24T08:57:48.703Z,999.31
2017-05-24T08:58:59.093Z,999.3
2017-05-24T09:00:08.819Z,999.31
2017-05-24T09:01:18.870Z,999.23
2017-05-24T09:02:28.933Z,999.32
2017-05-24T09:03:39.045Z,999.3
2017-05-24T09:04:49.430Z,999.33
2017-05-24T09:05:59.790Z,999.36
2017-05-24T09:07:10.173Z,999.36
2017-05-24T09:08:20.586Z,999.3
2017-05-24T09:09:31.021Z,999.32
2017-05-24T09:10:41.071Z,999.29
2017-05-24T09:11:51.107Z,999.25
2017-05-24T09:13:01.490Z,999.3
2017-05-24T09:14:11.853Z,999.3
2017-05-24T09:15:21.978Z,999.2
2017-05-24T09:16:32.347Z,999.13
2017-05-24T09:17:42.712Z,999.11
2017-05-24T09:18:53.100Z,999.17
2017-05-24T09:20:03.458Z,999.26
2017-05-24T09:21:13.869Z,999.18
2017-05-24T09:22:24.454Z,999.18
2017-05-24T09:23:34.811Z,999.16
2017-05-24T09:24:45.212Z,999.13
2017-05-24T09:25:55.602Z,999.16
2017-05-24T09:27:05.661Z,999.2
2017-05-24T09:28:16.020Z,999.15
2017-05-24T09:29:26.495Z,999.15
2017-05-24T09:30:36.944Z,999.09
2017-05-24T09:31:47.299Z,999.07
2017-05-24T09:32:57.702Z,998.96
2017-05-24T09:34:07.752Z,999.07
2017-05-24T09:35:18.102Z,999.09
2017-05-24T09:36:28.469Z,999.11
2017-05-24T09:37:38.838Z,999.08
2017-05-24T09:38:48.895Z,999.07
2017-05-24T09:39:59.275Z,999.08
2017-05-24T09:41:09.325Z,998.97
2017-05-24T09:42:19.366Z,999.04
2017-05-24T09:43:29.717Z,998.99
2017-05-24T09:44:40.120Z,999
2017-05-24T09:45:50.161Z,999.03
2017-05-24T09:47:00.521Z,999.11
2017-05-24T09:48:10.878Z,999.04
2017-05-24T09:49:20.986Z,999.09
2017-05-24T09:50:31.436Z,999.05
2017-05-24T09:51:41.807Z,999.05
2017-05-24T09:52:52.169Z,999.04
2017-05-24T09:54:02.534Z,999.01
2017-05-24T09:55:12.904Z,999
2017-05-24T09:56:23.327Z,998.99
2017-05-24T09:57:33.697Z,998.96
2017-05-24T09:58:44.069Z,998.9
2017-05-24T09:59:54.434Z,998.94
2017-05-24T10:01:04.474Z,998.95
2017-05-24T10:03:39.825Z,998.85
2017-05-24T10:04:49.576Z,998.84
2017-05-24T10:05:59.314Z,998.9
2017-05-24T10:07:09.366Z,998.84
2017-05-24T10:08:19.419Z,998.79
2017-05-24T10:09:29.844Z,998.76
2017-05-24T10:10:40.254Z,998.7
2017-05-24T10:11:50.326Z,998.67
2017-05-24T10:13:00.381Z,998.63
2017-05-24T10:14:10.429Z,998.57
2017-05-24T10:15:20.803Z,998.59
2017-05-24T10:16:30.909Z,998.56
2017-05-24T10:17:40.974Z,998.5
2017-05-24T10:18:51.343Z,998.5
2017-05-24T10:20:01.407Z,998.51
2017-05-24T10:21:11.467Z,998.46
2017-05-24T10:22:21.559Z,998.45
2017-05-24T10:23:31.984Z,998.46
2017-05-24T10:24:42.339Z,998.47
2017-05-24T10:25:52.717Z,998.5
2017-05-24T10:27:03.090Z,998.54
2017-05-24T10:28:13.217Z,998.61
2017-05-24T10:29:23.603Z,998.68
2017-05-24T10:30:34.000Z,998.76
2017-05-24T10:31:44.386Z,999
2017-05-24T10:32:54.445Z,999.15
2017-05-24T10:34:04.860Z,999.06
2017-05-24T10:35:15.251Z,999.08
2017-05-24T10:36:25.632Z,999.16
2017-05-24T10:37:35.706Z,999.12
2017-05-24T10:38:46.082Z,999.12
2017-05-24T10:39:56.522Z,999.09
2017-05-24T10:41:06.894Z,999.11
2017-05-24T10:42:17.282Z,999.08
2017-05-24T10:43:27.647Z,999.07
2017-05-24T10:44:37.732Z,999.09
2017-05-24T10:45:48.166Z,999.19
2017-05-24T10:46:58.574Z,999.21
2017-05-24T10:48:08.455Z,999.24
2017-05-24T10:49:18.464Z,999.23
2017-05-24T10:50:29.146Z,999.23
2017-05-24T10:51:39.563Z,999.25
2017-05-24T10:52:49.944Z,999.28
2017-05-24T10:54:00.318Z,999.25
2017-05-24T10:55:10.695Z,999.16
2017-05-24T10:56:20.737Z,999.14
2017-05-24T10:57:31.407Z,999.14
2017-05-24T10:58:41.793Z,999.15
2017-05-24T10:59:52.403Z,999.17
2017-05-24T11:01:02.480Z,999.19
2017-05-24T11:02:12.531Z,999.16
2017-05-24T11:03:22.942Z,999.19
2017-05-24T11:04:32.985Z,999.17
2017-05-24T11:05:43.047Z,999.18
2017-05-24T11:06:53.432Z,999.22
2017-05-24T11:08:03.814Z,999.21
2017-05-24T11:09:13.937Z,999.2
2017-05-24T11:10:24.297Z,999.22
2017-05-24T11:11:34.340Z,999.12
2017-05-24T11:12:44.400Z,999.13
2017-05-24T11:13:54.757Z,999.17
2017-05-24T11:15:05.204Z,999.08
2017-05-24T11:16:15.606Z,999.06
2017-05-24T11:17:25.962Z,999.09
2017-05-24T11:18:36.397Z,999.05
2017-05-24T11:19:46.448Z,999.03
2017-05-24T11:20:57.092Z,999.02
2017-05-24T11:22:06.834Z,999
2017-05-24T11:23:17.213Z,999.07
2017-05-24T11:24:27.274Z,999.07
2017-05-24T11:25:37.737Z,999.05
2017-05-24T11:26:48.141Z,999.11
2017-05-24T11:27:58.516Z,999.06
2017-05-24T11:29:08.870Z,999.04
2017-05-24T11:30:19.248Z,999
2017-05-24T11:31:29.595Z,999.04
2017-05-24T11:32:40.021Z,998.95
2017-05-24T11:33:50.384Z,998.91
2017-05-24T11:35:00.770Z,998.92
2017-05-24T11:36:11.135Z,998.83
2017-05-24T11:37:21.213Z,998.89
2017-05-24T11:38:31.317Z,998.83
2017-05-24T11:39:41.665Z,998.82
2017-05-24T11:40:51.698Z,998.85
2017-05-24T11:42:02.040Z,998.82
2017-05-24T11:43:12.397Z,998.78
2017-05-24T11:44:22.449Z,998.8
2017-05-24T11:45:32.827Z,998.78
2017-05-24T11:46:42.894Z,998.78
2017-05-24T11:47:52.933Z,998.83
2017-05-24T11:49:03.302Z,998.8
2017-05-24T11:50:13.718Z,998.77
2017-05-24T11:51:24.074Z,998.77
2017-05-24T11:52:34.435Z,998.73
2017-05-24T11:53:44.817Z,998.68
2017-05-24T11:54:55.296Z,998.73
2017-05-24T11:56:05.659Z,998.71
2017-05-24T11:57:15.731Z,998.73
2017-05-24T11:58:26.095Z,998.7
2017-05-24T11:59:36.476Z,998.7
2017-05-24T12:00:46.534Z,998.74
2017-05-24T12:01:56.960Z,998.67
2017-05-24T12:03:07.330Z,998.69
2017-05-24T12:04:17.698Z,998.71
2017-05-24T12:05:28.054Z,998.72
2017-05-24T12:06:38.420Z,998.66
2017-05-24T12:07:48.561Z,998.67
2017-05-24T12:08:58.976Z,998.63
2017-05-24T12:10:09.347Z,998.64
2017-05-24T12:11:19.406Z,998.66
2017-05-24T12:12:29.769Z,998.61
2017-05-24T12:13:40.187Z,998.59
2017-05-24T12:14:50.230Z,998.63
2017-05-24T12:15:59.969Z,998.59
2017-05-24T12:17:10.012Z,998.57
2017-05-24T12:18:19.773Z,998.54
2017-05-24T12:19:30.219Z,998.54
2017-05-24T12:20:40.591Z,998.56
2017-05-24T12:21:50.659Z,998.57
2017-05-24T12:23:01.021Z,998.58
2017-05-24T12:24:11.450Z,998.57
2017-05-24T12:25:21.865Z,998.62
2017-05-24T12:26:32.232Z,998.58
2017-05-24T12:27:42.279Z,998.65
2017-05-24T12:28:52.363Z,998.62
2017-05-24T12:30:02.414Z,998.6
2017-05-24T12:31:12.497Z,998.7
2017-05-24T12:32:22.861Z,998.67
2017-05-24T12:33:33.226Z,998.72
2017-05-24T12:34:43.593Z,998.81
2017-05-24T12:35:53.960Z,998.7
2017-05-24T12:37:04.049Z,998.69
2017-05-24T12:38:14.167Z,998.68
2017-05-24T12:39:24.557Z,998.64
2017-05-24T12:40:34.942Z,998.65
2017-05-24T12:41:45.359Z,998.63
2017-05-24T12:42:55.541Z,998.71
2017-05-24T12:44:05.902Z,998.66
2017-05-24T12:45:16.262Z,998.69
2017-05-24T12:46:26.310Z,998.63
2017-05-24T12:47:36.668Z,998.63
2017-05-24T12:48:46.789Z,998.58
2017-05-24T12:49:57.181Z,998.61
2017-05-24T12:51:07.541Z,998.66
2017-05-24T12:52:17.897Z,998.61
2017-05-24T12:53:28.249Z,998.57
2017-05-24T12:54:38.654Z,998.53
2017-05-24T12:55:49.039Z,998.51
2017-05-24T12:56:59.392Z,998.48
2017-05-24T12:58:09.766Z,998.57
2017-05-24T12:59:19.509Z,998.45
2017-05-24T13:00:29.909Z,998.36
2017-05-24T13:01:39.648Z,998.42
2017-05-24T13:02:49.695Z,998.39
2017-05-24T13:03:59.770Z,998.47
2017-05-24T13:05:09.834Z,998.4
2017-05-24T13:06:20.255Z,998.3
2017-05-24T13:07:30.622Z,998.39
2017-05-24T13:08:40.674Z,998.39
2017-05-24T13:09:51.039Z,998.37
2017-05-24T13:11:01.412Z,998.4
2017-05-24T13:12:11.841Z,998.31
2017-05-24T13:13:22.206Z,998.34
2017-05-24T13:14:31.941Z,998.41
2017-05-24T13:15:42.009Z,998.45
2017-05-24T13:16:52.366Z,998.45
2017-05-24T13:18:02.796Z,998.34
2017-05-24T13:19:13.163Z,998.43
2017-05-24T13:20:23.540Z,998.43
2017-05-24T13:21:33.886Z,998.32
2017-05-24T13:22:44.259Z,998.34
2017-05-24T13:23:54.663Z,998.36
2017-05-24T13:25:05.032Z,998.24
2017-05-24T13:26:15.405Z,998.39
2017-05-24T13:27:25.788Z,998.43
2017-05-24T13:28:35.860Z,998.4
2017-05-24T13:29:46.291Z,998.38
2017-05-24T13:30:56.664Z,998.4
2017-05-24T13:32:07.020Z,998.34
2017-05-24T13:33:16.749Z,998.37
2017-05-24T13:34:27.127Z,998.24
2017-05-24T13:35:37.538Z,998.24
2017-05-24T13:36:47.899Z,998.21
2017-05-24T13:37:58.276Z,998.24
2017-05-24T13:39:08.670Z,998.31
2017-05-24T13:40:19.046Z,998.33
2017-05-24T13:41:29.481Z,998.29
2017-05-24T13:42:39.529Z,998.37
2017-05-24T13:43:49.581Z,998.2
2017-05-24T13:44:59.646Z,998.26
2017-05-24T13:46:10.014Z,998.29
2017-05-24T13:47:20.418Z,998.27
2017-05-24T13:48:30.788Z,998.29
2017-05-24T13:49:40.853Z,998.18
2017-05-24T13:50:51.226Z,998.25
2017-05-24T13:52:01.621Z,998.32
2017-05-24T13:53:12.037Z,998.22
2017-05-24T13:54:22.410Z,998.28
2017-05-24T13:55:32.472Z,998.23
2017-05-24T13:56:42.562Z,998.22
2017-05-24T13:57:52.625Z,998.18
2017-05-24T13:59:03.044Z,998.19
2017-05-24T14:00:13.416Z,998.24
2017-05-24T14:01:23.778Z,998.19
2017-05-24T14:02:34.139Z,998.26
2017-05-24T14:03:44.514Z,998.13
2017-05-24T14:04:54.648Z,998.27
2017-05-24T14:06:05.010Z,998.28
2017-05-24T14:07:15.070Z,998.22
2017-05-24T14:08:25.431Z,998.25
2017-05-24T14:09:35.797Z,998.28
2017-05-24T14:10:46.221Z,998.28
2017-05-24T14:11:56.587Z,998.14
2017-05-24T14:13:06.653Z,998.25
2017-05-24T14:14:17.014Z,998.17
2017-05-24T14:15:27.394Z,998.14
2017-05-24T14:16:37.447Z,998.29
2017-05-24T14:17:47.823Z,998.24
2017-05-24T14:18:58.200Z,998.26
2017-05-24T14:20:08.570Z,998.31
2017-05-24T14:21:18.929Z,998.09
2017-05-24T14:22:29.415Z,998.2
2017-05-24T14:23:39.541Z,998.29
2017-05-24T14:24:49.907Z,998.22
2017-05-24T14:26:00.290Z,998.24
2017-05-24T14:27:10.671Z,998.19
2017-05-24T14:28:20.794Z,998.32
2017-05-24T14:29:31.153Z,998.21
2017-05-24T14:30:41.521Z,998.36
2017-05-24T14:31:51.923Z,998.39
2017-05-24T14:33:01.681Z,998.28
2017-05-24T14:34:12.148Z,998.42
2017-05-24T14:35:22.518Z,998.36
2017-05-24T14:36:32.886Z,998.44
2017-05-24T14:37:42.935Z,998.34
2017-05-24T14:38:52.993Z,998.27
2017-05-24T14:40:03.395Z,998.3
2017-05-24T14:41:13.769Z,998.29
2017-05-24T14:42:24.173Z,998.37
2017-05-24T14:43:34.545Z,998.37
2017-05-24T14:44:44.909Z,998.28
2017-05-24T14:45:55.302Z,998.27
2017-05-24T14:47:05.882Z,998.23
2017-05-24T14:48:16.241Z,998.25
2017-05-24T14:49:26.614Z,998.25
2017-05-24T14:50:37.001Z,998.26
2017-05-24T14:51:47.071Z,998.23
2017-05-24T14:52:57.132Z,998.21
2017-05-24T14:54:07.500Z,998.29
2017-05-24T14:55:17.887Z,998.25
2017-05-24T14:56:28.233Z,998.3
2017-05-24T14:57:38.339Z,998.36
2017-05-24T14:58:48.721Z,998.37
2017-05-24T14:59:58.434Z,998.3
2017-05-24T15:01:08.819Z,998.32
2017-05-24T15:02:19.188Z,998.41
2017-05-24T15:03:29.609Z,998.43
2017-05-24T15:04:39.665Z,998.31
2017-05-24T15:05:50.052Z,998.37
2017-05-24T15:07:00.697Z,998.37
2017-05-24T15:08:10.748Z,998.4
2017-05-24T15:09:20.478Z,998.35
2017-05-24T15:10:30.839Z,998.29
2017-05-24T15:11:41.205Z,998.36